Colorado Springs, CO (80919)

7:02 AM MDT on September 01, 2015 (GMT -0600)
At the Orton-Urbina's | | Change Station
CLOSE
Current Station
Personal Weather Station
Location: Colorado Springs, CO
Elevation: 6700 ft
Nearby Weather Stations

Elev 6700 ft 38.93 °N, 104.85 °W | Updated 2 minutes ago

Clear
Clear
58.1 °F
Feels Like 58.1 °F
N
3.2
Wind Variable Wind from North
Gusts 4.0 mph

Today
High -- | Low -- °F
--% Chance of Precip.
Yesterday
High -- | Low -- °F
Precip. -- in
6:28 AM 7:30 PM
Waning Gibbous, 89% visible
Pressure 30.03 in
Visibility 10.0 miles
Clouds Clear
Dew Point 50 °F
Humidity 75%
Rainfall Not available.
Snow Depth Not available.
UV 0 out of 12
Pollen 9.90 out of 12
Air Quality Not available.
Flu Activity Not available.
METAR KAFF 011258Z AUTO 01006KT 10SM CLR 10/08 A3020 RMK AO2 SLP167 T01040082
Pressure 30.03 in
Visibility 10.0 miles
Clouds Clear
Dew Point 50 °F
Humidity 75%
Rainfall Not available.
Snow Depth Not available.
UV 0 out of 12
Pollen 9.90 out of 12
Air Quality Not available.
Flu Activity Not available.
METAR KAFF 011258Z AUTO 01006KT 10SM CLR 10/08 A3020 RMK AO2 SLP167 T01040082

10-Day Weather Forecast

×

Almanac

Astronomy

Sep. 01, 2015 Rise Set
Actual Time
Civil Twilight
Nautical Twilight
Astronomical Twilight
Moon
Length of Visible Light
Length of Day
Tomorrow will be .
, % of the Moon is Illuminated

Today's Extremes

State Highs State Lows

Community

WunderPhotos

Upload Photos

1,851,513 photos uploaded!

WunderBlogs® & News

Nearby

Air Quality

  Air Quality AQ Index Pollutant
Not available.

Snow Depth

Station Depth Elevation

Earthquake Activity

City Distance Mag. Time & Date
Minimum magnitude displayed is 2.5.

Coastal Water Temperatures

Place Temperature

Stations

Nearby Weather Stations

Station Location Temp. Windchill Dew Point Humidity Wind Precip. Elev Updated Type